createdAt,value
2017-12-21T00:01:54.122Z,11.00
2017-12-21T00:04:20.461Z,11.65
2017-12-21T00:06:48.087Z,12.57
2017-12-21T00:09:14.644Z,11.40
2017-12-21T00:11:41.384Z,9.82
2017-12-21T00:14:07.861Z,11.77
2017-12-21T00:16:34.491Z,11.82
2017-12-21T00:19:00.843Z,8.10
2017-12-21T00:21:27.489Z,14.77
2017-12-21T00:23:54.054Z,10.80
2017-12-21T00:26:20.238Z,11.32
2017-12-21T00:28:46.769Z,12.35
2017-12-21T00:31:13.198Z,11.32
2017-12-21T00:33:39.463Z,13.40
2017-12-21T00:36:05.913Z,10.23
2017-12-21T00:38:32.317Z,11.50
2017-12-21T00:40:58.912Z,11.85
2017-12-21T00:43:25.148Z,10.35
2017-12-21T00:46:03.640Z,11.40
2017-12-21T00:48:30.126Z,12.32
2017-12-21T00:50:56.710Z,15.98
2017-12-21T00:53:23.314Z,16.35
2017-12-21T00:55:49.694Z,13.73
2017-12-21T00:58:16.046Z,12.05
2017-12-21T01:00:42.530Z,14.57
2017-12-21T01:03:09.244Z,17.15
2017-12-21T01:05:35.633Z,11.20
2017-12-21T01:08:02.168Z,10.65
2017-12-21T01:10:28.666Z,16.27
2017-12-21T01:12:55.126Z,14.02
2017-12-21T01:15:21.732Z,13.20
2017-12-21T01:17:48.056Z,9.93
2017-12-21T01:20:14.438Z,9.20
2017-12-21T01:22:40.902Z,10.25
2017-12-21T01:25:07.410Z,10.20
2017-12-21T01:27:33.767Z,13.00
2017-12-21T01:30:00.084Z,11.20
2017-12-21T01:32:26.650Z,11.80
2017-12-21T01:34:53.190Z,14.57
2017-12-21T01:37:19.587Z,11.57
2017-12-21T01:39:45.921Z,13.15
2017-12-21T01:42:12.479Z,16.37
2017-12-21T01:44:38.917Z,12.60
2017-12-21T01:47:05.473Z,12.25
2017-12-21T01:49:32.075Z,10.95
2017-12-21T01:52:10.457Z,10.00
2017-12-21T01:54:36.855Z,14.13
2017-12-21T01:57:04.269Z,13.75
2017-12-21T01:59:31.013Z,10.57
2017-12-21T02:01:57.369Z,13.18
2017-12-21T02:04:23.793Z,12.45
2017-12-21T02:06:50.041Z,11.32
2017-12-21T02:09:16.573Z,14.02
2017-12-21T02:11:43.102Z,11.70
2017-12-21T02:14:09.766Z,12.10
2017-12-21T02:16:36.101Z,14.05
2017-12-21T02:19:02.694Z,15.65
2017-12-21T02:21:29.304Z,11.38
2017-12-21T02:23:55.748Z,14.25
2017-12-21T02:26:22.171Z,11.45
2017-12-21T02:28:48.814Z,11.23
2017-12-21T02:31:15.090Z,11.70
2017-12-21T02:33:41.834Z,11.30
2017-12-21T02:36:08.140Z,10.85
2017-12-21T02:38:34.490Z,11.73
2017-12-21T02:41:00.909Z,9.77
2017-12-21T02:43:27.434Z,12.88
2017-12-21T02:45:53.872Z,12.30
2017-12-21T02:48:20.403Z,9.98
2017-12-21T02:50:46.987Z,12.37
2017-12-21T02:53:13.515Z,12.27
2017-12-21T02:55:40.186Z,11.00
2017-12-21T02:58:07.111Z,11.10
2017-12-21T03:00:33.628Z,12.98
2017-12-21T03:02:59.937Z,14.07
2017-12-21T03:05:26.453Z,12.95
2017-12-21T03:07:53.117Z,12.70
2017-12-21T03:10:19.718Z,16.27
2017-12-21T03:12:45.956Z,14.63
2017-12-21T03:15:12.335Z,12.95
2017-12-21T03:17:38.839Z,10.68
2017-12-21T03:20:05.321Z,13.38
2017-12-21T03:22:31.632Z,11.75
2017-12-21T03:24:58.491Z,13.20
2017-12-21T03:27:24.793Z,19.27
2017-12-21T03:29:52.381Z,13.57
2017-12-21T03:32:19.095Z,14.10
2017-12-21T03:34:45.498Z,11.50
2017-12-21T03:37:11.831Z,11.88
2017-12-21T03:39:38.393Z,12.60
2017-12-21T03:42:04.900Z,13.25
2017-12-21T03:44:31.343Z,15.15
2017-12-21T03:46:57.829Z,13.45
2017-12-21T03:49:24.404Z,13.38
2017-12-21T03:51:50.818Z,17.40
2017-12-21T03:54:17.286Z,15.23
2017-12-21T03:56:43.797Z,15.15
2017-12-21T03:59:10.293Z,13.27
2017-12-21T04:01:36.953Z,13.62
2017-12-21T04:04:03.444Z,13.93
2017-12-21T04:06:29.866Z,12.40
2017-12-21T04:08:56.320Z,14.15
2017-12-21T04:11:22.952Z,14.57
2017-12-21T04:13:49.306Z,12.02
2017-12-21T04:16:15.957Z,14.02
2017-12-21T04:18:42.172Z,12.77
2017-12-21T04:21:08.940Z,12.70
2017-12-21T04:23:35.500Z,9.25
2017-12-21T04:26:01.939Z,12.60
2017-12-21T04:28:28.527Z,11.57
2017-12-21T04:30:54.916Z,10.90
2017-12-21T04:33:21.328Z,9.68
2017-12-21T04:35:47.688Z,9.38
2017-12-21T04:38:14.107Z,12.90
2017-12-21T04:40:40.720Z,11.82
2017-12-21T04:43:09.194Z,11.88
2017-12-21T04:45:35.777Z,13.77
2017-12-21T04:48:02.209Z,12.27
2017-12-21T04:50:28.663Z,13.02
2017-12-21T04:52:55.140Z,10.30
2017-12-21T04:55:21.560Z,11.32
2017-12-21T04:57:47.943Z,11.12
2017-12-21T05:00:14.481Z,14.48
2017-12-21T05:02:40.909Z,16.15
2017-12-21T05:05:07.187Z,15.13
2017-12-21T05:07:33.829Z,12.45
2017-12-21T05:10:00.539Z,14.80
2017-12-21T05:12:26.935Z,14.02
2017-12-21T05:14:53.437Z,13.23
2017-12-21T05:17:19.789Z,12.93
2017-12-21T05:19:46.197Z,11.15
2017-12-21T05:22:12.642Z,11.38
2017-12-21T05:24:39.110Z,15.35
2017-12-21T05:27:05.622Z,12.93
2017-12-21T05:29:32.173Z,12.63
2017-12-21T05:31:58.574Z,13.82
2017-12-21T05:34:24.907Z,13.45
2017-12-21T05:36:51.492Z,11.30
2017-12-21T05:39:18.046Z,12.40
2017-12-21T05:41:44.353Z,16.02
2017-12-21T05:44:10.810Z,9.98
2017-12-21T05:46:37.430Z,13.18
2017-12-21T05:49:04.916Z,12.73
2017-12-21T05:51:31.866Z,12.25
2017-12-21T05:53:58.506Z,12.65
2017-12-21T05:56:25.453Z,18.08
2017-12-21T05:58:51.922Z,18.67
2017-12-21T06:01:18.437Z,18.50
2017-12-21T06:03:45.190Z,21.75
2017-12-21T06:06:11.818Z,22.45
2017-12-21T06:08:38.445Z,19.45
2017-12-21T06:11:04.892Z,15.70
2017-12-21T06:13:31.401Z,14.65
2017-12-21T06:15:57.701Z,14.98
2017-12-21T06:18:24.010Z,16.20
2017-12-21T06:20:50.475Z,14.38
2017-12-21T06:23:16.997Z,22.75
2017-12-21T06:25:43.630Z,17.33
2017-12-21T06:28:10.028Z,16.48
2017-12-21T06:30:36.461Z,17.55
2017-12-21T06:33:03.744Z,16.52
2017-12-21T06:35:30.201Z,20.35
2017-12-21T06:37:56.703Z,15.00
2017-12-21T06:40:23.137Z,14.30
2017-12-21T06:42:49.805Z,15.77
2017-12-21T06:45:16.129Z,15.95
2017-12-21T06:47:42.651Z,18.40
2017-12-21T06:50:09.029Z,18.17
2017-12-21T06:52:35.618Z,16.87
2017-12-21T06:55:03.149Z,17.12
2017-12-21T06:57:29.835Z,17.52
2017-12-21T06:59:56.567Z,19.85
2017-12-21T07:02:23.081Z,14.40
2017-12-21T07:04:49.362Z,17.35
2017-12-21T07:07:15.760Z,17.10
2017-12-21T07:09:42.270Z,16.85
2017-12-21T07:12:08.945Z,16.92
2017-12-21T07:14:35.235Z,16.35
2017-12-21T07:17:01.945Z,17.65
2017-12-21T07:19:28.279Z,13.45
2017-12-21T07:21:54.758Z,14.95
2017-12-21T07:24:21.232Z,11.73
2017-12-21T07:26:47.583Z,13.18
2017-12-21T07:29:14.059Z,12.82
2017-12-21T07:31:40.710Z,13.48
2017-12-21T07:34:07.161Z,13.65
2017-12-21T07:36:33.756Z,12.85
2017-12-21T07:39:00.070Z,9.77
2017-12-21T07:41:26.426Z,11.10
2017-12-21T07:43:53.134Z,14.77
2017-12-21T07:46:19.906Z,13.90
2017-12-21T07:48:46.284Z,15.95
2017-12-21T07:51:12.657Z,11.45
2017-12-21T07:53:38.914Z,12.63
2017-12-21T07:56:05.555Z,15.57
2017-12-21T07:58:32.629Z,13.00
2017-12-21T08:00:59.115Z,13.77
2017-12-21T08:03:25.669Z,10.60
2017-12-21T08:05:52.153Z,16.55
2017-12-21T08:08:18.675Z,11.77
2017-12-21T08:10:45.301Z,13.65
2017-12-21T08:13:11.781Z,14.57
2017-12-21T08:15:38.485Z,14.45
2017-12-21T08:18:04.931Z,14.00
2017-12-21T08:20:31.399Z,14.73
2017-12-21T08:22:58.020Z,11.88
2017-12-21T08:25:24.484Z,19.50
2017-12-21T08:27:50.832Z,17.80
2017-12-21T08:30:17.361Z,14.60
2017-12-21T08:32:43.947Z,14.10
2017-12-21T08:35:10.470Z,21.15
2017-12-21T08:37:36.726Z,15.85
2017-12-21T08:40:03.154Z,16.52
2017-12-21T08:42:29.498Z,16.35
2017-12-21T08:44:55.956Z,17.73
2017-12-21T08:47:22.271Z,16.77
2017-12-21T08:49:48.630Z,15.43
2017-12-21T08:52:15.003Z,19.77
2017-12-21T08:54:41.538Z,17.70
2017-12-21T08:57:08.126Z,18.92
2017-12-21T08:59:34.398Z,19.98
2017-12-21T09:02:00.780Z,25.12
2017-12-21T09:04:26.874Z,21.70
2017-12-21T09:06:53.344Z,26.33
2017-12-21T09:09:19.537Z,27.50
2017-12-21T09:11:45.600Z,18.20
2017-12-21T09:14:12.038Z,22.13
2017-12-21T09:16:38.782Z,19.77
2017-12-21T09:19:05.268Z,20.80
2017-12-21T09:21:31.749Z,20.12
2017-12-21T09:23:58.283Z,21.98
2017-12-21T09:26:24.722Z,19.03
2017-12-21T09:28:51.060Z,20.75
2017-12-21T09:31:17.647Z,28.27
2017-12-21T09:33:44.041Z,25.27
2017-12-21T09:36:10.571Z,27.40
2017-12-21T09:38:37.589Z,21.60
2017-12-21T09:41:03.963Z,20.45
2017-12-21T09:43:30.379Z,22.23
2017-12-21T09:45:56.925Z,16.37
2017-12-21T09:48:23.457Z,23.73
2017-12-21T09:50:49.821Z,23.37
2017-12-21T09:53:15.925Z,21.73
2017-12-21T09:55:41.951Z,31.10
2017-12-21T09:58:08.141Z,24.10
2017-12-21T10:00:34.949Z,27.60
2017-12-21T10:03:01.078Z,23.07
2017-12-21T10:05:27.196Z,30.13
2017-12-21T10:07:53.551Z,27.77
2017-12-21T10:10:20.029Z,21.67
2017-12-21T10:12:46.100Z,28.67
2017-12-21T10:15:12.238Z,25.47
2017-12-21T10:17:38.634Z,26.43
2017-12-21T10:20:05.121Z,24.63
2017-12-21T10:22:31.572Z,24.27
2017-12-21T10:24:57.606Z,23.40
2017-12-21T10:27:24.212Z,28.17
2017-12-21T10:29:50.680Z,24.00
2017-12-21T10:32:17.176Z,26.53
2017-12-21T10:34:43.662Z,22.67
2017-12-21T10:37:10.298Z,22.70
2017-12-21T10:39:36.920Z,18.50
2017-12-21T10:42:03.314Z,24.10
2017-12-21T10:44:29.430Z,20.90
2017-12-21T10:46:55.536Z,26.90
2017-12-21T10:49:22.143Z,28.27
2017-12-21T10:51:48.380Z,29.43
2017-12-21T10:54:19.413Z,30.23
2017-12-21T10:56:47.133Z,30.03
2017-12-21T11:02:43.551Z,25.87
2017-12-21T11:05:10.136Z,30.50
2017-12-21T11:07:36.388Z,30.77
2017-12-21T11:10:02.692Z,36.97
2017-12-21T11:12:28.771Z,25.70
2017-12-21T11:14:54.928Z,34.27
2017-12-21T11:17:21.133Z,25.40
2017-12-21T11:19:47.224Z,27.73
2017-12-21T11:22:13.389Z,22.57
2017-12-21T11:27:15.081Z,24.50
2017-12-21T11:29:41.526Z,20.53
2017-12-21T11:32:07.571Z,29.43
2017-12-21T11:34:33.720Z,26.20
2017-12-21T11:36:59.874Z,20.57
2017-12-21T11:39:26.111Z,22.07
2017-12-21T11:41:52.304Z,25.20
2017-12-21T11:44:18.571Z,22.57
2017-12-21T11:46:45.826Z,26.67
2017-12-21T11:52:00.720Z,25.27
2017-12-21T11:54:26.835Z,22.47
2017-12-21T11:56:52.879Z,22.43
2017-12-21T11:59:19.192Z,23.33
2017-12-21T12:01:46.331Z,29.00
2017-12-21T12:04:12.610Z,23.07
2017-12-21T12:06:38.830Z,23.33
2017-12-21T12:09:04.970Z,18.70
2017-12-21T12:11:31.222Z,30.93
2017-12-21T12:13:57.347Z,21.70
2017-12-21T12:16:23.531Z,27.60
2017-12-21T12:18:49.745Z,24.00
2017-12-21T12:21:15.947Z,22.07
2017-12-21T12:23:42.144Z,21.10
2017-12-21T12:26:08.299Z,21.77
2017-12-21T12:28:34.583Z,19.30
2017-12-21T12:31:00.790Z,25.27
2017-12-21T12:33:27.304Z,23.80
2017-12-21T12:35:53.422Z,22.20
2017-12-21T12:38:19.643Z,23.97
2017-12-21T12:40:45.796Z,19.90
2017-12-21T12:43:12.023Z,20.40
2017-12-21T12:45:38.152Z,21.73
2017-12-21T12:48:04.271Z,21.63
2017-12-21T12:50:30.361Z,20.97
2017-12-21T12:52:56.417Z,19.43
2017-12-21T12:55:22.626Z,20.73
2017-12-21T12:57:48.963Z,22.20
2017-12-21T13:00:15.098Z,22.33
2017-12-21T13:02:41.353Z,18.63
2017-12-21T13:05:07.683Z,20.03
2017-12-21T13:07:33.708Z,15.07
2017-12-21T13:10:02.579Z,17.57
2017-12-21T13:12:28.699Z,23.97
2017-12-21T13:14:55.047Z,20.60
2017-12-21T13:17:21.295Z,16.10
2017-12-21T13:19:47.477Z,18.27
2017-12-21T13:22:13.526Z,20.10
2017-12-21T13:24:39.732Z,16.10
2017-12-21T13:27:05.984Z,17.67
2017-12-21T13:29:32.363Z,17.90
2017-12-21T13:31:58.703Z,16.23
2017-12-21T13:34:24.841Z,19.03
2017-12-21T13:36:51.078Z,15.90
2017-12-21T13:39:17.310Z,16.73
2017-12-21T13:41:43.723Z,18.07
2017-12-21T13:44:09.978Z,14.70
2017-12-21T13:46:36.220Z,13.57
2017-12-21T13:49:02.610Z,15.30
2017-12-21T13:51:28.763Z,16.40
2017-12-21T13:53:55.968Z,16.13
2017-12-21T13:56:22.354Z,24.33
2017-12-21T13:58:48.684Z,18.80
2017-12-21T14:01:22.672Z,22.23
2017-12-21T14:03:48.892Z,17.07
2017-12-21T14:06:15.255Z,16.67
2017-12-21T14:08:41.601Z,22.07
2017-12-21T14:11:08.066Z,21.10
2017-12-21T14:13:34.514Z,22.50
2017-12-21T14:16:00.602Z,17.03
2017-12-21T14:18:26.722Z,24.80
2017-12-21T14:20:52.862Z,21.03
2017-12-21T14:23:19.250Z,14.47
2017-12-21T14:25:45.371Z,13.10
2017-12-21T14:28:11.618Z,11.50
2017-12-21T14:30:37.807Z,13.50
2017-12-21T14:33:03.992Z,18.40
2017-12-21T14:35:32.054Z,15.63
2017-12-21T14:37:58.279Z,15.87
2017-12-21T14:40:24.685Z,16.20
2017-12-21T14:42:52.265Z,22.90
2017-12-21T14:45:18.441Z,15.10
2017-12-21T14:47:44.647Z,15.70
2017-12-21T14:50:11.223Z,13.10
2017-12-21T14:52:37.849Z,16.60
2017-12-21T14:55:10.195Z,14.83
2017-12-21T14:57:37.442Z,13.00
2017-12-21T15:00:04.537Z,16.42
2017-12-21T15:02:30.710Z,13.40
2017-12-21T15:04:56.798Z,16.20
2017-12-21T15:07:23.167Z,19.07
2017-12-21T15:09:49.526Z,13.63
2017-12-21T15:12:15.890Z,14.00
2017-12-21T15:14:42.158Z,12.90
2017-12-21T15:17:09.727Z,11.73
2017-12-21T15:19:36.406Z,14.00
2017-12-21T15:22:02.878Z,11.10
2017-12-21T15:24:29.302Z,12.10
2017-12-21T15:26:55.596Z,16.20
2017-12-21T15:29:22.150Z,13.00
2017-12-21T15:31:48.984Z,13.27
2017-12-21T15:34:15.302Z,12.07
2017-12-21T15:36:41.878Z,13.80
2017-12-21T15:39:08.747Z,10.30
2017-12-21T15:41:34.824Z,12.43
2017-12-21T15:44:01.096Z,15.47
2017-12-21T15:46:27.368Z,12.40
2017-12-21T15:48:53.532Z,17.30
2017-12-21T15:51:19.819Z,15.60
2017-12-21T15:53:46.075Z,17.03
2017-12-21T15:56:12.408Z,13.27
2017-12-21T15:58:38.715Z,19.47
2017-12-21T16:01:04.823Z,12.90
2017-12-21T16:03:31.253Z,11.67
2017-12-21T16:05:57.561Z,12.70
2017-12-21T16:08:23.985Z,13.43
2017-12-21T16:10:50.545Z,12.63
2017-12-21T16:13:16.933Z,11.43
2017-12-21T16:15:43.129Z,11.57
2017-12-21T16:18:10.805Z,11.40
2017-12-21T16:23:15.205Z,9.77
2017-12-21T16:25:41.810Z,11.53
2017-12-21T16:28:08.033Z,13.30
2017-12-21T16:30:35.151Z,11.77
2017-12-21T16:33:01.383Z,11.80
2017-12-21T16:35:27.613Z,12.83
2017-12-21T16:37:53.800Z,8.07
2017-12-21T16:40:19.998Z,10.10
2017-12-21T16:42:47.329Z,11.40
2017-12-21T16:45:13.544Z,10.80
2017-12-21T16:47:39.713Z,11.80
2017-12-21T16:50:14.456Z,11.17
2017-12-21T16:52:40.829Z,7.87
2017-12-21T16:55:07.205Z,8.83
2017-12-21T16:57:33.457Z,8.17
2017-12-21T17:00:00.458Z,10.03
2017-12-21T17:02:26.912Z,10.17
2017-12-21T17:04:58.076Z,8.37
2017-12-21T17:07:27.673Z,10.50
2017-12-21T17:09:54.490Z,7.80
2017-12-21T17:12:21.231Z,10.23
2017-12-21T17:14:49.960Z,7.10
2017-12-21T17:17:17.891Z,8.83
2017-12-21T17:19:45.922Z,10.70
2017-12-21T17:22:12.171Z,10.97
2017-12-21T17:24:38.741Z,10.10
2017-12-21T17:27:04.917Z,13.10
2017-12-21T17:29:31.391Z,11.93
2017-12-21T17:31:57.820Z,6.97
2017-12-21T17:34:24.435Z,9.23
2017-12-21T17:36:50.896Z,10.88
2017-12-21T17:39:17.555Z,9.47
2017-12-21T17:41:44.067Z,10.80
2017-12-21T17:44:10.472Z,12.60
2017-12-21T17:46:37.040Z,9.17
2017-12-21T17:49:03.336Z,7.80
2017-12-21T17:51:29.813Z,9.77
2017-12-21T17:53:56.279Z,7.90
2017-12-21T17:56:23.625Z,8.02
2017-12-21T17:58:50.190Z,12.50
2017-12-21T18:01:16.346Z,9.87
2017-12-21T18:03:42.989Z,10.57
2017-12-21T18:06:09.186Z,9.73
2017-12-21T18:08:35.662Z,12.20
2017-12-21T18:11:01.812Z,11.00
2017-12-21T18:13:27.922Z,11.03
2017-12-21T18:15:54.323Z,12.37
2017-12-21T18:18:20.561Z,9.57
2017-12-21T18:20:46.857Z,9.73
2017-12-21T18:23:13.075Z,9.27
2017-12-21T18:25:39.328Z,9.63
2017-12-21T18:28:05.926Z,10.07
2017-12-21T18:30:32.263Z,9.93
2017-12-21T18:32:58.438Z,10.37
2017-12-21T18:35:25.108Z,8.38
2017-12-21T18:37:51.725Z,9.93
2017-12-21T18:40:18.050Z,12.33
2017-12-21T18:42:44.495Z,13.13
2017-12-21T18:45:10.776Z,13.05
2017-12-21T18:47:37.357Z,11.00
2017-12-21T18:50:03.969Z,10.97
2017-12-21T18:52:30.467Z,14.40
2017-12-21T18:54:57.382Z,10.57
2017-12-21T18:57:23.845Z,11.37
2017-12-21T18:59:50.537Z,10.40
2017-12-21T19:02:17.168Z,7.93
2017-12-21T19:04:43.734Z,9.35
2017-12-21T19:07:11.076Z,8.75
2017-12-21T19:09:37.595Z,7.32
2017-12-21T19:12:04.207Z,6.93
2017-12-21T19:14:30.789Z,11.45
2017-12-21T19:16:57.458Z,9.73
2017-12-21T19:19:24.094Z,9.60
2017-12-21T19:21:50.838Z,8.40
2017-12-21T19:24:17.539Z,11.23
2017-12-21T19:26:44.258Z,8.73
2017-12-21T19:29:13.003Z,8.27
2017-12-21T19:31:39.914Z,9.75
2017-12-21T19:34:06.922Z,7.93
2017-12-21T19:36:33.517Z,9.63
2017-12-21T19:39:00.390Z,6.57
2017-12-21T19:41:27.191Z,9.33
2017-12-21T19:43:53.981Z,7.62
2017-12-21T19:46:20.545Z,9.13
2017-12-21T19:48:48.426Z,8.43
2017-12-21T19:51:14.999Z,9.40
2017-12-21T19:53:41.959Z,13.50
2017-12-21T19:56:13.661Z,9.40
2017-12-21T19:58:40.900Z,12.57
2017-12-21T20:01:11.836Z,7.97
2017-12-21T20:03:38.638Z,8.50
2017-12-21T20:06:05.597Z,7.30
2017-12-21T20:08:33.120Z,7.53
2017-12-21T20:10:59.857Z,8.05
2017-12-21T20:13:26.613Z,10.60
2017-12-21T20:15:53.461Z,8.53
2017-12-21T20:18:20.174Z,6.93
2017-12-21T20:20:47.031Z,8.60
2017-12-21T20:23:13.755Z,9.88
2017-12-21T20:25:40.940Z,7.75
2017-12-21T20:28:07.561Z,9.55
2017-12-21T20:30:34.345Z,16.03
2017-12-21T20:33:01.320Z,14.00
2017-12-21T20:35:27.950Z,10.80
2017-12-21T20:37:54.611Z,11.85
2017-12-21T20:40:21.482Z,10.25
2017-12-21T20:42:48.547Z,9.73
2017-12-21T20:45:15.424Z,10.90
2017-12-21T20:47:42.506Z,8.13
2017-12-21T20:50:09.281Z,10.70
2017-12-21T20:52:36.186Z,8.55
2017-12-21T20:57:37.453Z,6.80
2017-12-21T21:00:03.975Z,8.18
2017-12-21T21:02:30.774Z,8.95
2017-12-21T21:04:57.520Z,7.67
2017-12-21T21:07:24.223Z,9.00
2017-12-21T21:09:50.706Z,9.35
2017-12-21T21:12:17.479Z,11.83
2017-12-21T21:14:44.219Z,11.20
2017-12-21T21:17:10.865Z,9.25
2017-12-21T21:19:37.399Z,8.80
2017-12-21T21:22:03.881Z,10.33
2017-12-21T21:24:30.585Z,12.10
2017-12-21T21:26:57.382Z,14.80
2017-12-21T21:29:24.158Z,11.65
2017-12-21T21:31:50.706Z,11.50
2017-12-21T21:34:17.411Z,9.38
2017-12-21T21:36:44.001Z,11.12
2017-12-21T21:39:10.539Z,12.10
2017-12-21T21:41:37.179Z,12.35
2017-12-21T21:44:03.744Z,7.70
2017-12-21T21:46:30.472Z,9.77
2017-12-21T21:48:56.801Z,11.43
2017-12-21T21:51:23.266Z,11.35
2017-12-21T21:53:49.890Z,12.88
2017-12-21T21:56:16.226Z,9.75
2017-12-21T21:58:42.432Z,7.05
2017-12-21T22:01:12.533Z,7.30
2017-12-21T22:03:38.790Z,8.95
2017-12-21T22:06:05.171Z,8.70
2017-12-21T22:08:31.387Z,5.80
2017-12-21T22:10:57.875Z,8.63
2017-12-21T22:13:24.248Z,6.40
2017-12-21T22:15:51.711Z,6.87
2017-12-21T22:18:18.129Z,8.48
2017-12-21T22:20:44.442Z,9.88
2017-12-21T22:23:10.760Z,6.78
2017-12-21T22:25:37.288Z,7.75
2017-12-21T22:28:03.765Z,9.23
2017-12-21T22:30:30.163Z,9.88
2017-12-21T22:32:56.851Z,8.90
2017-12-21T22:35:23.302Z,7.15
2017-12-21T22:37:49.629Z,6.15
2017-12-21T22:40:16.137Z,8.35
2017-12-21T22:42:42.455Z,8.75
2017-12-21T22:45:09.026Z,7.80
2017-12-21T22:47:35.567Z,7.07
2017-12-21T22:50:01.770Z,11.60
2017-12-21T22:52:28.252Z,8.90
2017-12-21T22:54:54.807Z,9.53
2017-12-21T22:57:21.030Z,8.88
2017-12-21T22:59:47.408Z,7.37
2017-12-21T23:02:13.869Z,8.13
2017-12-21T23:04:40.253Z,7.97
2017-12-21T23:07:07.025Z,9.02
2017-12-21T23:09:33.399Z,8.60
2017-12-21T23:12:00.251Z,6.78
2017-12-21T23:14:26.458Z,8.60
2017-12-21T23:16:52.807Z,6.57
2017-12-21T23:19:19.151Z,8.90
2017-12-21T23:21:45.397Z,9.60
2017-12-21T23:24:11.911Z,7.95
2017-12-21T23:26:38.169Z,6.70
2017-12-21T23:29:04.568Z,7.68
2017-12-21T23:31:31.138Z,11.18
2017-12-21T23:33:57.638Z,12.30
2017-12-21T23:36:24.072Z,10.53
2017-12-21T23:38:50.330Z,10.93
2017-12-21T23:41:16.624Z,9.48
2017-12-21T23:43:42.908Z,9.43
2017-12-21T23:46:09.239Z,5.75
2017-12-21T23:48:35.714Z,11.12
2017-12-21T23:51:02.151Z,9.85
2017-12-21T23:53:28.578Z,15.50
2017-12-21T23:55:54.825Z,10.75
2017-12-21T23:58:21.319Z,16.12
